Date,TemperatureHighF,TemperatureAvgF,TemperatureLowF,DewpointHighF,DewpointAvgF,DewpointLowF,HumidityHigh,HumidityAvg,HumidityLow,PressureMaxIn,PressureMinIn,WindSpeedMaxMPH,WindSpeedAvgMPH,GustSpeedMaxMPH,PrecipitationSumIn
2013-5-1,64.6,49.6,33.8,27.0,19.8,5.7,63,36,10,30.74,30.49,9,2,0,0.00
2013-5-2,68.9,55.6,44.1,54.7,30.0,16.5,98,45,14,30.66,30.35,6,2,0,0.02
2013-5-3,70.7,58.5,44.1,58.3,42.9,35.4,98,63,28,30.52,30.20,6,2,0,0.00
2013-5-4,76.8,61.0,43.0,53.0,37.7,17.9,98,51,11,30.46,30.05,6,2,0,0.00
2013-5-5,82.2,65.1,46.6,40.7,34.0,17.2,80,35,9,30.22,29.75,6,2,0,0.00
2013-5-6,86.0,68.7,50.2,43.2,36.4,24.3,67,35,11,30.03,29.58,7,2,0,0.00
2013-5-7,86.9,71.5,53.8,46.6,34.9,11.9,61,31,6,30.07,29.69,6,2,0,0.00
2013-5-8,87.3,70.7,52.7,43.8,33.2,11.7,63,30,6,30.23,29.83,7,2,0,0.00
2013-5-9,88.3,71.5,52.5,41.7,34.8,25.8,57,29,11,30.37,29.92,7,2,0,0.00
2013-5-10,87.1,71.5,54.5,43.4,36.1,15.5,62,31,10,30.37,29.92,5,2,0,0.00
2013-5-11,87.8,73.3,57.0,42.3,35.7,26.5,45,27,12,30.38,29.79,7,2,0,0.00
2013-5-12,76.3,67.3,60.3,52.0,43.9,34.6,65,44,22,29.96,29.78,10,3,0,0.00
2013-5-13,72.5,60.0,50.2,59.2,42.0,29.0,95,52,27,29.93,29.70,19,3,0,0.01
2013-5-14,66.9,55.1,41.4,46.0,31.0,20.1,98,48,17,30.13,29.92,11,3,0,0.00
2013-5-15,70.3,56.7,43.0,54.3,36.6,27.7,98,51,22,30.08,29.84,9,2,0,0.00
2013-5-16,72.9,60.7,46.6,59.9,43.1,31.7,98,60,23,29.98,29.76,8,2,0,0.00
2013-5-17,74.7,61.1,45.1,57.4,42.7,31.1,98,57,21,30.03,29.71,10,4,0,0.00
2013-5-18,67.8,58.1,51.4,55.6,46.1,36.4,98,69,34,30.12,29.91,9,3,0,0.00
2013-5-19,74.1,61.4,50.4,51.4,41.3,36.7,81,51,27,30.31,30.13,10,3,0,0.00
2013-5-20,75.6,62.9,45.9,56.1,43.8,37.0,98,55,26,30.27,29.76,20,4,0,0.00
2013-5-21,66.4,56.3,46.2,65.8,51.2,42.5,98,85,47,29.77,29.51,13,2,0,1.05
2013-5-22,53.8,47.8,42.8,53.2,47.3,42.3,98,98,98,30.05,29.76,6,2,0,0.91
2013-5-23,60.8,49.7,40.5,54.8,44.1,38.7,98,84,45,30.14,30.00,6,2,0,0.04
2013-5-24,69.3,53.5,38.5,55.4,42.5,4.2,98,74,23,30.10,29.86,11,2,0,0.04
2013-5-25,69.8,57.1,46.6,56.5,42.8,31.8,98,66,26,30.04,29.89,12,3,0,0.00
2013-5-26,69.8,57.0,44.8,60.9,48.1,41.1,98,75,38,30.02,29.83,8,2,0,0.06
2013-5-27,61.7,55.0,50.0,61.1,54.5,49.5,98,98,98,29.93,29.69,5,2,0,0.40
2013-5-28,70.0,58.4,50.0,64.9,51.0,42.7,98,80,39,29.83,29.62,8,3,0,0.33
2013-5-29,66.0,55.4,49.5,65.4,54.9,48.9,98,98,98,29.80,29.65,9,2,0,0.37
2013-5-30,68.7,58.1,47.1,57.2,39.6,31.2,98,58,25,30.05,29.80,12,5,0,0.02
2013-5-31,72.3,60.3,44.4,47.1,37.5,27.8,98,48,20,30.27,30.07,8,2,0,0.00